sensor_id;sensor_type;location;lat;lon;timestamp;P1;durP1;ratioP1;P2;durP2;ratioP2
43986;SDS011;29650;47.378;8.300;2022-10-16T00:01:52;1.13;;;0.77;;
43986;SDS011;29650;47.378;8.300;2022-10-16T00:04:19;3.40;;;0.95;;
43986;SDS011;29650;47.378;8.300;2022-10-16T00:06:46;6.35;;;1.15;;
43986;SDS011;29650;47.378;8.300;2022-10-16T00:09:13;2.70;;;0.80;;
43986;SDS011;29650;47.378;8.300;2022-10-16T00:11:41;1.67;;;0.93;;
43986;SDS011;29650;47.378;8.300;2022-10-16T00:14:09;1.33;;;1.10;;
43986;SDS011;29650;47.378;8.300;2022-10-16T00:16:38;0.73;;;0.73;;
43986;SDS011;29650;47.378;8.300;2022-10-16T00:19:05;3.40;;;1.00;;
43986;SDS011;29650;47.378;8.300;2022-10-16T00:21:32;3.72;;;0.85;;
43986;SDS011;29650;47.378;8.300;2022-10-16T00:24:01;3.75;;;0.93;;
43986;SDS011;29650;47.378;8.300;2022-10-16T00:28:58;1.23;;;0.70;;
43986;SDS011;29650;47.378;8.300;2022-10-16T00:31:25;1.17;;;0.70;;
43986;SDS011;29650;47.378;8.300;2022-10-16T00:33:53;9.48;;;0.80;;
43986;SDS011;29650;47.378;8.300;2022-10-16T00:36:21;1.20;;;1.02;;
43986;SDS011;29650;47.378;8.300;2022-10-16T00:38:50;3.78;;;1.17;;
43986;SDS011;29650;47.378;8.300;2022-10-16T00:43:47;3.10;;;1.05;;
43986;SDS011;29650;47.378;8.300;2022-10-16T00:46:18;0.98;;;0.70;;
43986;SDS011;29650;47.378;8.300;2022-10-16T00:48:48;3.42;;;1.17;;
43986;SDS011;29650;47.378;8.300;2022-10-16T00:51:18;5.45;;;1.38;;
43986;SDS011;29650;47.378;8.300;2022-10-16T00:53:49;3.53;;;0.82;;
43986;SDS011;29650;47.378;8.300;2022-10-16T00:56:16;4.90;;;0.98;;
43986;SDS011;29650;47.378;8.300;2022-10-16T00:58:43;0.70;;;0.60;;
43986;SDS011;29650;47.378;8.300;2022-10-16T01:01:10;1.13;;;0.80;;
43986;SDS011;29650;47.378;8.300;2022-10-16T01:03:39;1.67;;;1.27;;
43986;SDS011;29650;47.378;8.300;2022-10-16T01:06:12;1.45;;;0.80;;
43986;SDS011;29650;47.378;8.300;2022-10-16T01:08:51;1.15;;;1.05;;
43986;SDS011;29650;47.378;8.300;2022-10-16T01:11:25;5.97;;;0.93;;
43986;SDS011;29650;47.378;8.300;2022-10-16T01:13:58;1.42;;;0.88;;
43986;SDS011;29650;47.378;8.300;2022-10-16T01:16:32;11.43;;;2.10;;
43986;SDS011;29650;47.378;8.300;2022-10-16T01:19:08;2.50;;;0.57;;
43986;SDS011;29650;47.378;8.300;2022-10-16T01:21:39;3.60;;;0.70;;
43986;SDS011;29650;47.378;8.300;2022-10-16T01:24:09;2.40;;;1.35;;
43986;SDS011;29650;47.378;8.300;2022-10-16T01:29:38;4.53;;;1.33;;
43986;SDS011;29650;47.378;8.300;2022-10-16T01:32:13;1.40;;;0.93;;
43986;SDS011;29650;47.378;8.300;2022-10-16T01:34:46;1.65;;;0.98;;
43986;SDS011;29650;47.378;8.300;2022-10-16T01:37:16;1.73;;;0.73;;
43986;SDS011;29650;47.378;8.300;2022-10-16T01:39:48;4.20;;;1.05;;
43986;SDS011;29650;47.378;8.300;2022-10-16T01:42:21;6.05;;;0.90;;
43986;SDS011;29650;47.378;8.300;2022-10-16T01:44:50;1.38;;;1.13;;
43986;SDS011;29650;47.378;8.300;2022-10-16T01:47:19;1.42;;;1.08;;
43986;SDS011;29650;47.378;8.300;2022-10-16T01:49:49;1.85;;;1.05;;
43986;SDS011;29650;47.378;8.300;2022-10-16T01:52:19;2.72;;;1.00;;
43986;SDS011;29650;47.378;8.300;2022-10-16T01:54:50;1.63;;;0.90;;
43986;SDS011;29650;47.378;8.300;2022-10-16T01:57:21;2.30;;;0.95;;
43986;SDS011;29650;47.378;8.300;2022-10-16T01:59:50;2.03;;;0.98;;
43986;SDS011;29650;47.378;8.300;2022-10-16T02:02:20;10.32;;;1.27;;
43986;SDS011;29650;47.378;8.300;2022-10-16T02:04:51;1.73;;;1.00;;
43986;SDS011;29650;47.378;8.300;2022-10-16T02:07:24;3.88;;;0.80;;
43986;SDS011;29650;47.378;8.300;2022-10-16T02:09:51;2.95;;;1.13;;
43986;SDS011;29650;47.378;8.300;2022-10-16T02:12:19;1.67;;;0.95;;
43986;SDS011;29650;47.378;8.300;2022-10-16T02:14:52;3.17;;;1.38;;
43986;SDS011;29650;47.378;8.300;2022-10-16T02:17:19;1.88;;;1.02;;
43986;SDS011;29650;47.378;8.300;2022-10-16T02:19:47;2.75;;;1.33;;
43986;SDS011;29650;47.378;8.300;2022-10-16T02:22:16;5.28;;;1.15;;
43986;SDS011;29650;47.378;8.300;2022-10-16T02:24:49;5.25;;;1.40;;
43986;SDS011;29650;47.378;8.300;2022-10-16T02:27:23;2.72;;;1.48;;
43986;SDS011;29650;47.378;8.300;2022-10-16T02:29:54;6.95;;;1.17;;
43986;SDS011;29650;47.378;8.300;2022-10-16T02:32:27;2.58;;;1.15;;
43986;SDS011;29650;47.378;8.300;2022-10-16T02:34:57;7.57;;;1.55;;
43986;SDS011;29650;47.378;8.300;2022-10-16T02:37:26;4.07;;;1.00;;
43986;SDS011;29650;47.378;8.300;2022-10-16T02:39:54;4.63;;;1.13;;
43986;SDS011;29650;47.378;8.300;2022-10-16T02:42:28;1.23;;;0.90;;
43986;SDS011;29650;47.378;8.300;2022-10-16T02:44:58;4.22;;;0.90;;
43986;SDS011;29650;47.378;8.300;2022-10-16T02:47:25;1.67;;;1.00;;
43986;SDS011;29650;47.378;8.300;2022-10-16T02:49:52;1.10;;;0.80;;
43986;SDS011;29650;47.378;8.300;2022-10-16T02:52:19;7.05;;;0.95;;
43986;SDS011;29650;47.378;8.300;2022-10-16T02:54:46;5.65;;;1.13;;
43986;SDS011;29650;47.378;8.300;2022-10-16T02:57:13;1.73;;;0.75;;
43986;SDS011;29650;47.378;8.300;2022-10-16T02:59:41;2.47;;;0.68;;
43986;SDS011;29650;47.378;8.300;2022-10-16T03:02:08;2.10;;;1.02;;
43986;SDS011;29650;47.378;8.300;2022-10-16T03:04:35;2.55;;;0.68;;
43986;SDS011;29650;47.378;8.300;2022-10-16T03:07:03;4.00;;;0.70;;
43986;SDS011;29650;47.378;8.300;2022-10-16T03:09:30;5.30;;;1.45;;
43986;SDS011;29650;47.378;8.300;2022-10-16T03:11:57;0.85;;;0.70;;
43986;SDS011;29650;47.378;8.300;2022-10-16T03:14:24;2.08;;;0.68;;
43986;SDS011;29650;47.378;8.300;2022-10-16T03:16:52;1.55;;;1.15;;
43986;SDS011;29650;47.378;8.300;2022-10-16T03:19:19;6.07;;;1.00;;
43986;SDS011;29650;47.378;8.300;2022-10-16T03:21:46;2.08;;;0.65;;
43986;SDS011;29650;47.378;8.300;2022-10-16T03:24:13;0.75;;;0.70;;
43986;SDS011;29650;47.378;8.300;2022-10-16T03:26:40;1.33;;;0.90;;
43986;SDS011;29650;47.378;8.300;2022-10-16T03:29:07;2.20;;;0.80;;
43986;SDS011;29650;47.378;8.300;2022-10-16T03:31:34;1.67;;;1.05;;
43986;SDS011;29650;47.378;8.300;2022-10-16T03:34:02;1.20;;;0.68;;
43986;SDS011;29650;47.378;8.300;2022-10-16T03:36:29;2.33;;;0.93;;
43986;SDS011;29650;47.378;8.300;2022-10-16T03:38:56;1.17;;;1.08;;
43986;SDS011;29650;47.378;8.300;2022-10-16T03:41:23;4.63;;;0.73;;
43986;SDS011;29650;47.378;8.300;2022-10-16T03:43:50;2.65;;;1.10;;
43986;SDS011;29650;47.378;8.300;2022-10-16T03:46:16;1.05;;;0.70;;
43986;SDS011;29650;47.378;8.300;2022-10-16T03:48:43;3.75;;;0.90;;
43986;SDS011;29650;47.378;8.300;2022-10-16T03:51:11;1.08;;;0.65;;
43986;SDS011;29650;47.378;8.300;2022-10-16T03:53:38;2.22;;;0.68;;
43986;SDS011;29650;47.378;8.300;2022-10-16T03:56:05;2.30;;;0.90;;
43986;SDS011;29650;47.378;8.300;2022-10-16T03:58:32;0.95;;;0.70;;
43986;SDS011;29650;47.378;8.300;2022-10-16T04:00:59;2.80;;;0.80;;
43986;SDS011;29650;47.378;8.300;2022-10-16T04:03:26;2.92;;;0.60;;
43986;SDS011;29650;47.378;8.300;2022-10-16T04:05:53;1.05;;;0.70;;
43986;SDS011;29650;47.378;8.300;2022-10-16T04:08:22;3.50;;;0.95;;
43986;SDS011;29650;47.378;8.300;2022-10-16T04:10:49;0.88;;;0.70;;
43986;SDS011;29650;47.378;8.300;2022-10-16T04:13:16;0.68;;;0.68;;
43986;SDS011;29650;47.378;8.300;2022-10-16T04:15:44;1.05;;;0.73;;
43986;SDS011;29650;47.378;8.300;2022-10-16T04:18:11;1.83;;;1.00;;
43986;SDS011;29650;47.378;8.300;2022-10-16T04:20:38;0.90;;;0.82;;
43986;SDS011;29650;47.378;8.300;2022-10-16T04:23:05;8.80;;;2.17;;
43986;SDS011;29650;47.378;8.300;2022-10-16T04:25:33;1.70;;;0.82;;
43986;SDS011;29650;47.378;8.300;2022-10-16T04:28:00;5.07;;;1.02;;
43986;SDS011;29650;47.378;8.300;2022-10-16T04:30:27;2.75;;;0.80;;
43986;SDS011;29650;47.378;8.300;2022-10-16T04:32:54;1.80;;;1.40;;
43986;SDS011;29650;47.378;8.300;2022-10-16T04:35:21;18.58;;;1.52;;
43986;SDS011;29650;47.378;8.300;2022-10-16T04:37:48;16.80;;;1.35;;
43986;SDS011;29650;47.378;8.300;2022-10-16T04:40:15;1.30;;;1.20;;
43986;SDS011;29650;47.378;8.300;2022-10-16T04:42:43;1.23;;;1.08;;
43986;SDS011;29650;47.378;8.300;2022-10-16T04:45:10;3.70;;;1.13;;
43986;SDS011;29650;47.378;8.300;2022-10-16T04:47:37;1.52;;;0.93;;
43986;SDS011;29650;47.378;8.300;2022-10-16T04:50:04;3.05;;;1.00;;
43986;SDS011;29650;47.378;8.300;2022-10-16T04:52:32;1.70;;;1.10;;
43986;SDS011;29650;47.378;8.300;2022-10-16T04:54:59;4.80;;;1.27;;
43986;SDS011;29650;47.378;8.300;2022-10-16T04:57:27;4.37;;;1.60;;
43986;SDS011;29650;47.378;8.300;2022-10-16T04:59:56;8.70;;;1.55;;
43986;SDS011;29650;47.378;8.300;2022-10-16T05:02:23;3.13;;;1.50;;
43986;SDS011;29650;47.378;8.300;2022-10-16T05:04:50;3.97;;;1.85;;
43986;SDS011;29650;47.378;8.300;2022-10-16T05:07:17;2.55;;;1.40;;
43986;SDS011;29650;47.378;8.300;2022-10-16T05:09:44;4.50;;;1.27;;
43986;SDS011;29650;47.378;8.300;2022-10-16T05:12:11;3.83;;;1.65;;
43986;SDS011;29650;47.378;8.300;2022-10-16T05:14:38;2.67;;;1.45;;
43986;SDS011;29650;47.378;8.300;2022-10-16T05:17:06;3.25;;;1.50;;
43986;SDS011;29650;47.378;8.300;2022-10-16T05:19:33;2.20;;;1.02;;
43986;SDS011;29650;47.378;8.300;2022-10-16T05:22:00;1.60;;;1.10;;
43986;SDS011;29650;47.378;8.300;2022-10-16T05:24:27;3.30;;;1.05;;
43986;SDS011;29650;47.378;8.300;2022-10-16T05:26:54;2.00;;;0.90;;
43986;SDS011;29650;47.378;8.300;2022-10-16T05:29:21;6.38;;;1.30;;
43986;SDS011;29650;47.378;8.300;2022-10-16T05:31:49;2.60;;;0.95;;
43986;SDS011;29650;47.378;8.300;2022-10-16T05:34:19;0.95;;;0.85;;
43986;SDS011;29650;47.378;8.300;2022-10-16T05:36:46;2.13;;;0.70;;
43986;SDS011;29650;47.378;8.300;2022-10-16T05:39:13;1.00;;;0.65;;
43986;SDS011;29650;47.378;8.300;2022-10-16T05:41:41;2.38;;;0.93;;
43986;SDS011;29650;47.378;8.300;2022-10-16T05:44:08;1.73;;;0.68;;
43986;SDS011;29650;47.378;8.300;2022-10-16T05:46:35;1.50;;;0.90;;
43986;SDS011;29650;47.378;8.300;2022-10-16T05:49:01;0.90;;;0.57;;
43986;SDS011;29650;47.378;8.300;2022-10-16T05:51:30;1.95;;;0.80;;
43986;SDS011;29650;47.378;8.300;2022-10-16T05:53:57;16.88;;;1.20;;
43986;SDS011;29650;47.378;8.300;2022-10-16T05:56:24;1.25;;;0.70;;
43986;SDS011;29650;47.378;8.300;2022-10-16T05:58:50;0.80;;;0.70;;
43986;SDS011;29650;47.378;8.300;2022-10-16T06:01:18;1.27;;;0.90;;
43986;SDS011;29650;47.378;8.300;2022-10-16T06:03:49;1.00;;;0.70;;
43986;SDS011;29650;47.378;8.300;2022-10-16T06:06:16;0.60;;;0.60;;
43986;SDS011;29650;47.378;8.300;2022-10-16T06:08:47;4.15;;;1.67;;
43986;SDS011;29650;47.378;8.300;2022-10-16T06:11:16;1.00;;;0.80;;
43986;SDS011;29650;47.378;8.300;2022-10-16T06:13:44;2.70;;;1.30;;
43986;SDS011;29650;47.378;8.300;2022-10-16T06:16:15;1.63;;;1.10;;
43986;SDS011;29650;47.378;8.300;2022-10-16T06:18:41;4.45;;;1.10;;
43986;SDS011;29650;47.378;8.300;2022-10-16T06:21:09;9.65;;;1.00;;
43986;SDS011;29650;47.378;8.300;2022-10-16T06:23:37;0.80;;;0.80;;
43986;SDS011;29650;47.378;8.300;2022-10-16T06:26:06;2.13;;;1.25;;
43986;SDS011;29650;47.378;8.300;2022-10-16T06:31:00;7.28;;;1.40;;
43986;SDS011;29650;47.378;8.300;2022-10-16T06:33:28;2.38;;;0.90;;
43986;SDS011;29650;47.378;8.300;2022-10-16T06:35:59;1.58;;;1.02;;
43986;SDS011;29650;47.378;8.300;2022-10-16T06:38:27;4.55;;;0.65;;
43986;SDS011;29650;47.378;8.300;2022-10-16T06:40:54;1.88;;;0.60;;
43986;SDS011;29650;47.378;8.300;2022-10-16T06:43:22;1.30;;;0.95;;
43986;SDS011;29650;47.378;8.300;2022-10-16T06:45:52;1.70;;;1.00;;
43986;SDS011;29650;47.378;8.300;2022-10-16T06:48:19;1.00;;;0.75;;
43986;SDS011;29650;47.378;8.300;2022-10-16T06:50:54;14.70;;;1.45;;
43986;SDS011;29650;47.378;8.300;2022-10-16T06:53:23;3.53;;;0.95;;
43986;SDS011;29650;47.378;8.300;2022-10-16T06:55:50;0.80;;;0.70;;
43986;SDS011;29650;47.378;8.300;2022-10-16T06:58:17;3.33;;;1.42;;
43986;SDS011;29650;47.378;8.300;2022-10-16T07:00:45;1.55;;;1.10;;
43986;SDS011;29650;47.378;8.300;2022-10-16T07:03:13;2.30;;;1.13;;
43986;SDS011;29650;47.378;8.300;2022-10-16T07:05:40;1.77;;;1.00;;
43986;SDS011;29650;47.378;8.300;2022-10-16T07:08:08;2.17;;;0.90;;
43986;SDS011;29650;47.378;8.300;2022-10-16T07:10:35;1.63;;;0.90;;
43986;SDS011;29650;47.378;8.300;2022-10-16T07:13:02;1.38;;;0.80;;
43986;SDS011;29650;47.378;8.300;2022-10-16T07:15:29;3.47;;;1.35;;
43986;SDS011;29650;47.378;8.300;2022-10-16T07:17:57;2.20;;;1.15;;
43986;SDS011;29650;47.378;8.300;2022-10-16T07:20:24;1.13;;;0.98;;
43986;SDS011;29650;47.378;8.300;2022-10-16T07:22:51;2.05;;;1.10;;
43986;SDS011;29650;47.378;8.300;2022-10-16T07:25:18;1.05;;;0.90;;
43986;SDS011;29650;47.378;8.300;2022-10-16T07:27:45;3.45;;;0.93;;
43986;SDS011;29650;47.378;8.300;2022-10-16T07:30:12;1.55;;;1.33;;
43986;SDS011;29650;47.378;8.300;2022-10-16T07:32:39;2.65;;;1.40;;
43986;SDS011;29650;47.378;8.300;2022-10-16T07:35:08;6.47;;;2.15;;
43986;SDS011;29650;47.378;8.300;2022-10-16T07:37:35;1.40;;;0.98;;
43986;SDS011;29650;47.378;8.300;2022-10-16T07:40:03;1.45;;;0.93;;
43986;SDS011;29650;47.378;8.300;2022-10-16T07:42:31;1.98;;;1.20;;
43986;SDS011;29650;47.378;8.300;2022-10-16T07:44:58;1.27;;;0.90;;
43986;SDS011;29650;47.378;8.300;2022-10-16T07:47:25;1.67;;;1.00;;
43986;SDS011;29650;47.378;8.300;2022-10-16T07:49:51;1.15;;;0.95;;
43986;SDS011;29650;47.378;8.300;2022-10-16T07:52:20;2.15;;;1.25;;
43986;SDS011;29650;47.378;8.300;2022-10-16T07:54:47;3.30;;;1.70;;
43986;SDS011;29650;47.378;8.300;2022-10-16T07:57:13;1.85;;;1.10;;
43986;SDS011;29650;47.378;8.300;2022-10-16T07:59:44;4.28;;;1.48;;
43986;SDS011;29650;47.378;8.300;2022-10-16T08:02:11;1.33;;;1.17;;
43986;SDS011;29650;47.378;8.300;2022-10-16T08:04:38;2.40;;;1.50;;
43986;SDS011;29650;47.378;8.300;2022-10-16T08:07:06;2.13;;;1.38;;
43986;SDS011;29650;47.378;8.300;2022-10-16T08:09:35;1.48;;;1.02;;
43986;SDS011;29650;47.378;8.300;2022-10-16T08:12:02;2.00;;;1.08;;
43986;SDS011;29650;47.378;8.300;2022-10-16T08:14:29;4.10;;;1.35;;
43986;SDS011;29650;47.378;8.300;2022-10-16T08:16:56;1.40;;;0.90;;
43986;SDS011;29650;47.378;8.300;2022-10-16T08:19:23;1.27;;;1.00;;
43986;SDS011;29650;47.378;8.300;2022-10-16T08:21:49;2.35;;;1.20;;
43986;SDS011;29650;47.378;8.300;2022-10-16T08:24:16;1.23;;;1.00;;
43986;SDS011;29650;47.378;8.300;2022-10-16T08:26:45;2.55;;;1.25;;
43986;SDS011;29650;47.378;8.300;2022-10-16T08:29:13;4.65;;;1.20;;
43986;SDS011;29650;47.378;8.300;2022-10-16T08:31:40;5.82;;;0.95;;
43986;SDS011;29650;47.378;8.300;2022-10-16T08:34:07;1.42;;;0.90;;
43986;SDS011;29650;47.378;8.300;2022-10-16T08:36:33;2.97;;;1.20;;
43986;SDS011;29650;47.378;8.300;2022-10-16T08:39:00;3.35;;;1.60;;
43986;SDS011;29650;47.378;8.300;2022-10-16T08:41:39;2.55;;;1.20;;
43986;SDS011;29650;47.378;8.300;2022-10-16T08:44:37;1.33;;;0.93;;
43986;SDS011;29650;47.378;8.300;2022-10-16T08:47:25;2.85;;;1.10;;
43986;SDS011;29650;47.378;8.300;2022-10-16T08:49:58;1.50;;;1.23;;
43986;SDS011;29650;47.378;8.300;2022-10-16T08:52:29;0.85;;;0.85;;
43986;SDS011;29650;47.378;8.300;2022-10-16T08:54:58;1.55;;;1.27;;
43986;SDS011;29650;47.378;8.300;2022-10-16T08:57:25;2.15;;;1.05;;
43986;SDS011;29650;47.378;8.300;2022-10-16T08:59:54;3.40;;;1.55;;
43986;SDS011;29650;47.378;8.300;2022-10-16T09:02:28;4.18;;;1.30;;
43986;SDS011;29650;47.378;8.300;2022-10-16T09:05:09;2.17;;;1.45;;
43986;SDS011;29650;47.378;8.300;2022-10-16T09:07:49;2.80;;;1.02;;
43986;SDS011;29650;47.378;8.300;2022-10-16T09:10:29;1.17;;;0.93;;
43986;SDS011;29650;47.378;8.300;2022-10-16T09:13:09;1.65;;;1.40;;
43986;SDS011;29650;47.378;8.300;2022-10-16T09:15:46;1.75;;;0.60;;
43986;SDS011;29650;47.378;8.300;2022-10-16T09:18:20;1.10;;;0.85;;
43986;SDS011;29650;47.378;8.300;2022-10-16T09:20:53;1.80;;;0.88;;
43986;SDS011;29650;47.378;8.300;2022-10-16T09:23:26;1.80;;;1.10;;
43986;SDS011;29650;47.378;8.300;2022-10-16T09:25:54;0.70;;;0.60;;
43986;SDS011;29650;47.378;8.300;2022-10-16T09:28:24;0.85;;;0.80;;
43986;SDS011;29650;47.378;8.300;2022-10-16T09:30:53;0.60;;;0.60;;
43986;SDS011;29650;47.378;8.300;2022-10-16T09:33:21;1.63;;;0.60;;
43986;SDS011;29650;47.378;8.300;2022-10-16T09:35:51;2.10;;;0.80;;
43986;SDS011;29650;47.378;8.300;2022-10-16T09:38:24;0.60;;;0.60;;
43986;SDS011;29650;47.378;8.300;2022-10-16T09:40:53;1.25;;;1.00;;
43986;SDS011;29650;47.378;8.300;2022-10-16T09:43:22;1.15;;;1.05;;
43986;SDS011;29650;47.378;8.300;2022-10-16T09:45:58;0.85;;;0.80;;
43986;SDS011;29650;47.378;8.300;2022-10-16T09:48:26;1.50;;;0.90;;
43986;SDS011;29650;47.378;8.300;2022-10-16T09:50:57;0.60;;;0.60;;
43986;SDS011;29650;47.378;8.300;2022-10-16T09:53:25;0.75;;;0.70;;
43986;SDS011;29650;47.378;8.300;2022-10-16T09:56:04;1.00;;;0.80;;
43986;SDS011;29650;47.378;8.300;2022-10-16T09:58:32;1.17;;;0.60;;
43986;SDS011;29650;47.378;8.300;2022-10-16T10:01:01;0.77;;;0.70;;
43986;SDS011;29650;47.378;8.300;2022-10-16T10:03:32;0.40;;;0.40;;
43986;SDS011;29650;47.378;8.300;2022-10-16T10:06:03;0.35;;;0.35;;
43986;SDS011;29650;47.378;8.300;2022-10-16T10:08:41;1.20;;;0.70;;
43986;SDS011;29650;47.378;8.300;2022-10-16T10:11:18;0.50;;;0.50;;
43986;SDS011;29650;47.378;8.300;2022-10-16T10:14:05;0.75;;;0.70;;
43986;SDS011;29650;47.378;8.300;2022-10-16T10:16:33;1.02;;;0.60;;
43986;SDS011;29650;47.378;8.300;2022-10-16T10:19:01;4.50;;;0.70;;
43986;SDS011;29650;47.378;8.300;2022-10-16T10:21:27;1.73;;;0.60;;
43986;SDS011;29650;47.378;8.300;2022-10-16T10:23:55;0.85;;;0.63;;
43986;SDS011;29650;47.378;8.300;2022-10-16T10:26:23;0.50;;;0.50;;
43986;SDS011;29650;47.378;8.300;2022-10-16T10:28:55;1.02;;;0.75;;
43986;SDS011;29650;47.378;8.300;2022-10-16T10:31:29;3.13;;;1.00;;
43986;SDS011;29650;47.378;8.300;2022-10-16T10:34:07;3.53;;;0.70;;
43986;SDS011;29650;47.378;8.300;2022-10-16T10:36:49;0.52;;;0.52;;
43986;SDS011;29650;47.378;8.300;2022-10-16T10:39:24;0.65;;;0.65;;
43986;SDS011;29650;47.378;8.300;2022-10-16T10:42:06;0.47;;;0.45;;
43986;SDS011;29650;47.378;8.300;2022-10-16T10:44:56;0.57;;;0.57;;
43986;SDS011;29650;47.378;8.300;2022-10-16T10:47:38;0.57;;;0.50;;
43986;SDS011;29650;47.378;8.300;2022-10-16T10:50:14;1.23;;;0.73;;
43986;SDS011;29650;47.378;8.300;2022-10-16T10:52:52;0.93;;;0.73;;
43986;SDS011;29650;47.378;8.300;2022-10-16T10:55:26;0.45;;;0.40;;
43986;SDS011;29650;47.378;8.300;2022-10-16T11:01:09;0.57;;;0.43;;
43986;SDS011;29650;47.378;8.300;2022-10-16T11:03:59;1.40;;;0.38;;
43986;SDS011;29650;47.378;8.300;2022-10-16T11:06:39;1.05;;;0.80;;
43986;SDS011;29650;47.378;8.300;2022-10-16T11:09:10;2.47;;;0.65;;
43986;SDS011;29650;47.378;8.300;2022-10-16T11:11:43;0.35;;;0.30;;
43986;SDS011;29650;47.378;8.300;2022-10-16T11:14:15;1.38;;;0.70;;
43986;SDS011;29650;47.378;8.300;2022-10-16T11:16:47;5.57;;;0.70;;
43986;SDS011;29650;47.378;8.300;2022-10-16T11:19:22;0.40;;;0.40;;
43986;SDS011;29650;47.378;8.300;2022-10-16T11:21:59;1.13;;;0.38;;
43986;SDS011;29650;47.378;8.300;2022-10-16T11:24:35;0.73;;;0.52;;
43986;SDS011;29650;47.378;8.300;2022-10-16T11:27:08;1.05;;;0.95;;
43986;SDS011;29650;47.378;8.300;2022-10-16T11:29:41;0.70;;;0.30;;
43986;SDS011;29650;47.378;8.300;2022-10-16T11:32:15;0.28;;;0.28;;
43986;SDS011;29650;47.378;8.300;2022-10-16T11:34:50;0.75;;;0.60;;
43986;SDS011;29650;47.378;8.300;2022-10-16T11:37:20;3.63;;;0.50;;
43986;SDS011;29650;47.378;8.300;2022-10-16T11:39:52;3.72;;;0.47;;
43986;SDS011;29650;47.378;8.300;2022-10-16T11:42:25;0.80;;;0.47;;
43986;SDS011;29650;47.378;8.300;2022-10-16T11:45:00;1.00;;;0.50;;
43986;SDS011;29650;47.378;8.300;2022-10-16T11:47:34;0.70;;;0.45;;
43986;SDS011;29650;47.378;8.300;2022-10-16T11:50:05;0.90;;;0.60;;
43986;SDS011;29650;47.378;8.300;2022-10-16T11:52:40;0.65;;;0.45;;
43986;SDS011;29650;47.378;8.300;2022-10-16T11:55:14;1.48;;;0.60;;
43986;SDS011;29650;47.378;8.300;2022-10-16T11:57:44;0.68;;;0.50;;
43986;SDS011;29650;47.378;8.300;2022-10-16T12:00:17;0.50;;;0.50;;
43986;SDS011;29650;47.378;8.300;2022-10-16T12:02:54;1.80;;;0.45;;
43986;SDS011;29650;47.378;8.300;2022-10-16T12:05:30;0.68;;;0.50;;
43986;SDS011;29650;47.378;8.300;2022-10-16T12:08:06;1.13;;;0.82;;
43986;SDS011;29650;47.378;8.300;2022-10-16T12:10:36;0.68;;;0.68;;
43986;SDS011;29650;47.378;8.300;2022-10-16T12:13:04;6.28;;;0.57;;
43986;SDS011;29650;47.378;8.300;2022-10-16T12:15:32;1.05;;;0.70;;
43986;SDS011;29650;47.378;8.300;2022-10-16T12:18:00;2.40;;;0.55;;
43986;SDS011;29650;47.378;8.300;2022-10-16T12:20:28;1.17;;;0.63;;
43986;SDS011;29650;47.378;8.300;2022-10-16T12:22:59;1.10;;;0.45;;
43986;SDS011;29650;47.378;8.300;2022-10-16T12:27:59;3.63;;;0.77;;
43986;SDS011;29650;47.378;8.300;2022-10-16T12:30:29;0.95;;;0.50;;
43986;SDS011;29650;47.378;8.300;2022-10-16T12:32:58;3.70;;;0.50;;
43986;SDS011;29650;47.378;8.300;2022-10-16T12:35:28;5.03;;;0.80;;
43986;SDS011;29650;47.378;8.300;2022-10-16T12:38:14;0.45;;;0.45;;
43986;SDS011;29650;47.378;8.300;2022-10-16T12:40:44;1.35;;;0.40;;
43986;SDS011;29650;47.378;8.300;2022-10-16T12:46:03;0.73;;;0.47;;
43986;SDS011;29650;47.378;8.300;2022-10-16T12:48:32;0.85;;;0.73;;
43986;SDS011;29650;47.378;8.300;2022-10-16T12:51:10;0.30;;;0.30;;
43986;SDS011;29650;47.378;8.300;2022-10-16T12:53:37;0.75;;;0.70;;
43986;SDS011;29650;47.378;8.300;2022-10-16T12:56:09;1.58;;;0.45;;
43986;SDS011;29650;47.378;8.300;2022-10-16T12:58:46;0.77;;;0.50;;
43986;SDS011;29650;47.378;8.300;2022-10-16T13:01:24;0.50;;;0.50;;
43986;SDS011;29650;47.378;8.300;2022-10-16T13:07:04;1.13;;;0.70;;
43986;SDS011;29650;47.378;8.300;2022-10-16T13:09:55;1.05;;;0.63;;
43986;SDS011;29650;47.378;8.300;2022-10-16T13:12:36;2.15;;;0.40;;
43986;SDS011;29650;47.378;8.300;2022-10-16T13:15:22;0.38;;;0.38;;
43986;SDS011;29650;47.378;8.300;2022-10-16T13:18:13;0.35;;;0.35;;
43986;SDS011;29650;47.378;8.300;2022-10-16T13:20:51;0.35;;;0.35;;
43986;SDS011;29650;47.378;8.300;2022-10-16T13:23:31;2.38;;;0.65;;
43986;SDS011;29650;47.378;8.300;2022-10-16T13:26:09;5.00;;;0.68;;
43986;SDS011;29650;47.378;8.300;2022-10-16T13:28:46;1.08;;;0.38;;
43986;SDS011;29650;47.378;8.300;2022-10-16T13:31:14;0.82;;;0.38;;
43986;SDS011;29650;47.378;8.300;2022-10-16T13:33:45;2.17;;;0.40;;
43986;SDS011;29650;47.378;8.300;2022-10-16T13:36:19;0.60;;;0.40;;
43986;SDS011;29650;47.378;8.300;2022-10-16T13:38:50;0.40;;;0.40;;
43986;SDS011;29650;47.378;8.300;2022-10-16T13:44:04;0.60;;;0.40;;
43986;SDS011;29650;47.378;8.300;2022-10-16T13:46:35;0.52;;;0.52;;
43986;SDS011;29650;47.378;8.300;2022-10-16T13:49:03;1.33;;;0.40;;
43986;SDS011;29650;47.378;8.300;2022-10-16T13:51:31;0.52;;;0.38;;
43986;SDS011;29650;47.378;8.300;2022-10-16T13:54:00;0.32;;;0.30;;
43986;SDS011;29650;47.378;8.300;2022-10-16T13:56:28;0.73;;;0.50;;
43986;SDS011;29650;47.378;8.300;2022-10-16T13:58:59;0.57;;;0.30;;
43986;SDS011;29650;47.378;8.300;2022-10-16T14:01:27;2.65;;;0.35;;
43986;SDS011;29650;47.378;8.300;2022-10-16T14:04:00;1.25;;;0.68;;
43986;SDS011;29650;47.378;8.300;2022-10-16T14:06:29;0.32;;;0.20;;
43986;SDS011;29650;47.378;8.300;2022-10-16T14:08:58;0.28;;;0.20;;
43986;SDS011;29650;47.378;8.300;2022-10-16T14:11:28;7.18;;;0.47;;
43986;SDS011;29650;47.378;8.300;2022-10-16T14:13:55;0.30;;;0.30;;
43986;SDS011;29650;47.378;8.300;2022-10-16T14:16:23;0.63;;;0.40;;
43986;SDS011;29650;47.378;8.300;2022-10-16T14:18:55;0.45;;;0.35;;
43986;SDS011;29650;47.378;8.300;2022-10-16T14:21:23;0.73;;;0.40;;
43986;SDS011;29650;47.378;8.300;2022-10-16T14:23:51;0.75;;;0.43;;
43986;SDS011;29650;47.378;8.300;2022-10-16T14:26:21;0.15;;;0.15;;
43986;SDS011;29650;47.378;8.300;2022-10-16T14:29:01;1.70;;;0.20;;
43986;SDS011;29650;47.378;8.300;2022-10-16T14:31:36;0.15;;;0.15;;
43986;SDS011;29650;47.378;8.300;2022-10-16T14:34:04;3.33;;;0.30;;
43986;SDS011;29650;47.378;8.300;2022-10-16T14:36:50;0.60;;;0.40;;
43986;SDS011;29650;47.378;8.300;2022-10-16T14:39:18;0.45;;;0.35;;
43986;SDS011;29650;47.378;8.300;2022-10-16T14:41:48;0.45;;;0.45;;
43986;SDS011;29650;47.378;8.300;2022-10-16T14:44:16;0.82;;;0.30;;
43986;SDS011;29650;47.378;8.300;2022-10-16T14:46:45;5.32;;;0.70;;
43986;SDS011;29650;47.378;8.300;2022-10-16T14:49:14;0.43;;;0.25;;
43986;SDS011;29650;47.378;8.300;2022-10-16T14:51:44;0.28;;;0.28;;
43986;SDS011;29650;47.378;8.300;2022-10-16T14:54:12;0.88;;;0.45;;
43986;SDS011;29650;47.378;8.300;2022-10-16T14:56:44;2.67;;;0.38;;
43986;SDS011;29650;47.378;8.300;2022-10-16T14:59:16;0.30;;;0.20;;
43986;SDS011;29650;47.378;8.300;2022-10-16T15:01:45;0.47;;;0.47;;
43986;SDS011;29650;47.378;8.300;2022-10-16T15:04:13;0.17;;;0.17;;
43986;SDS011;29650;47.378;8.300;2022-10-16T15:06:40;0.70;;;0.52;;
43986;SDS011;29650;47.378;8.300;2022-10-16T15:09:07;1.02;;;0.30;;
43986;SDS011;29650;47.378;8.300;2022-10-16T15:11:34;0.30;;;0.30;;
43986;SDS011;29650;47.378;8.300;2022-10-16T15:14:01;3.83;;;0.40;;
43986;SDS011;29650;47.378;8.300;2022-10-16T15:16:30;0.43;;;0.30;;
43986;SDS011;29650;47.378;8.300;2022-10-16T15:18:57;0.28;;;0.28;;
43986;SDS011;29650;47.378;8.300;2022-10-16T15:21:24;0.95;;;0.47;;
43986;SDS011;29650;47.378;8.300;2022-10-16T15:23:53;0.47;;;0.47;;
43986;SDS011;29650;47.378;8.300;2022-10-16T15:26:21;2.63;;;0.40;;
43986;SDS011;29650;47.378;8.300;2022-10-16T15:28:48;1.50;;;0.75;;
43986;SDS011;29650;47.378;8.300;2022-10-16T15:31:15;7.82;;;1.30;;